logo
Search for airport 
image banner adimage banner adimage banner ad
image banner ad

LOWK - Klagenfurt

Located in Klagenfurt, Austria

ICAO - LOWK, IATA - KLU

Data provided by Airmate  

General information

Coordinates: N46°38'34" E14°20'14"
Elevation is 1472 feet MSL.
 
View others Airports in Carinthia

Operational data

Special qualification required
Current time UTC:
Current local time:
Weather
METAR: LOWK 281320Z AUTO VRB03KT 9999 FEW022 12/05 Q1018 NOSIG
TAF: TAF LOWK 281115Z 2812/2912 VRB03KT 9999 SCT050 TX13/2814Z TN06/2905Z TEMPO 2901/2909 4500 BR BKN012
View NOTAMs / SUP AIP / TFR affecting this airport [VIEW]
Communications frequencies: [VIEW]

Runways:

RWY identifierQFULength (ft)Width (ft)SurfaceLDA (ft)
10L106°8924148CON
28R286°8924148CON
10R106°242790GRS
28L286°242790GRS

Airport contact information

Address: Klagenfurt Austria

Handlers

Austrian Airlines Ag

Austrian Airlines Ag
[VIEW][VIEW]
+435176638321

Klagenfurt Ariport Handling

Klagenfurt Ariport Handling

Satellite view of LOWK